sensor_id;sensor_type;location;lat;lon;timestamp;P1;durP1;ratioP1;P2;durP2;ratioP2
44169;SDS011;29836;52.286;9.576;2024-03-06T00:00:25;16.52;;;7.90;;
44169;SDS011;29836;52.286;9.576;2024-03-06T00:02:51;20.05;;;8.63;;
44169;SDS011;29836;52.286;9.576;2024-03-06T00:05:16;14.52;;;8.82;;
44169;SDS011;29836;52.286;9.576;2024-03-06T00:07:42;17.02;;;8.48;;
44169;SDS011;29836;52.286;9.576;2024-03-06T00:10:07;15.13;;;7.95;;
44169;SDS011;29836;52.286;9.576;2024-03-06T00:12:33;15.80;;;8.18;;
44169;SDS011;29836;52.286;9.576;2024-03-06T00:14:59;15.18;;;8.55;;
44169;SDS011;29836;52.286;9.576;2024-03-06T00:17:25;18.70;;;9.23;;
44169;SDS011;29836;52.286;9.576;2024-03-06T00:19:51;14.48;;;8.38;;
44169;SDS011;29836;52.286;9.576;2024-03-06T00:22:16;14.15;;;8.65;;
44169;SDS011;29836;52.286;9.576;2024-03-06T00:24:42;16.42;;;9.10;;
44169;SDS011;29836;52.286;9.576;2024-03-06T00:27:07;19.40;;;9.38;;
44169;SDS011;29836;52.286;9.576;2024-03-06T00:29:34;15.00;;;7.80;;
44169;SDS011;29836;52.286;9.576;2024-03-06T00:32:02;16.52;;;9.02;;
44169;SDS011;29836;52.286;9.576;2024-03-06T00:34:28;16.67;;;9.50;;
44169;SDS011;29836;52.286;9.576;2024-03-06T00:36:54;18.13;;;9.93;;
44169;SDS011;29836;52.286;9.576;2024-03-06T00:39:20;17.52;;;9.00;;
44169;SDS011;29836;52.286;9.576;2024-03-06T00:41:45;21.00;;;10.65;;
44169;SDS011;29836;52.286;9.576;2024-03-06T00:44:11;17.10;;;9.40;;
44169;SDS011;29836;52.286;9.576;2024-03-06T00:46:36;15.30;;;8.68;;
44169;SDS011;29836;52.286;9.576;2024-03-06T00:49:03;18.65;;;9.77;;
44169;SDS011;29836;52.286;9.576;2024-03-06T00:51:28;16.58;;;8.73;;
44169;SDS011;29836;52.286;9.576;2024-03-06T00:53:54;18.45;;;9.38;;
44169;SDS011;29836;52.286;9.576;2024-03-06T00:56:20;21.13;;;10.98;;
44169;SDS011;29836;52.286;9.576;2024-03-06T00:58:45;15.95;;;9.25;;
44169;SDS011;29836;52.286;9.576;2024-03-06T01:01:11;21.02;;;10.35;;
44169;SDS011;29836;52.286;9.576;2024-03-06T01:03:39;18.55;;;9.35;;
44169;SDS011;29836;52.286;9.576;2024-03-06T01:06:05;19.23;;;9.50;;
44169;SDS011;29836;52.286;9.576;2024-03-06T01:08:30;18.13;;;9.13;;
44169;SDS011;29836;52.286;9.576;2024-03-06T01:10:56;21.08;;;10.57;;
44169;SDS011;29836;52.286;9.576;2024-03-06T01:13:22;18.55;;;10.02;;
44169;SDS011;29836;52.286;9.576;2024-03-06T01:15:48;19.25;;;9.82;;
44169;SDS011;29836;52.286;9.576;2024-03-06T01:18:13;19.25;;;10.15;;
44169;SDS011;29836;52.286;9.576;2024-03-06T01:20:39;19.83;;;9.32;;
44169;SDS011;29836;52.286;9.576;2024-03-06T01:23:05;17.85;;;9.10;;
44169;SDS011;29836;52.286;9.576;2024-03-06T01:25:31;20.13;;;10.30;;
44169;SDS011;29836;52.286;9.576;2024-03-06T01:27:57;25.58;;;9.82;;
44169;SDS011;29836;52.286;9.576;2024-03-06T01:30:22;21.60;;;10.32;;
44169;SDS011;29836;52.286;9.576;2024-03-06T01:32:48;23.63;;;10.32;;
44169;SDS011;29836;52.286;9.576;2024-03-06T01:35:13;19.08;;;9.13;;
44169;SDS011;29836;52.286;9.576;2024-03-06T01:37:39;17.83;;;10.43;;
44169;SDS011;29836;52.286;9.576;2024-03-06T01:40:05;20.48;;;10.48;;
44169;SDS011;29836;52.286;9.576;2024-03-06T01:42:32;20.45;;;10.65;;
44169;SDS011;29836;52.286;9.576;2024-03-06T01:44:57;17.10;;;9.10;;
44169;SDS011;29836;52.286;9.576;2024-03-06T01:47:23;20.73;;;10.15;;
44169;SDS011;29836;52.286;9.576;2024-03-06T01:49:48;18.60;;;9.82;;
44169;SDS011;29836;52.286;9.576;2024-03-06T01:52:14;21.80;;;10.82;;
44169;SDS011;29836;52.286;9.576;2024-03-06T01:54:42;21.25;;;11.48;;
44169;SDS011;29836;52.286;9.576;2024-03-06T01:57:09;18.25;;;10.35;;
44169;SDS011;29836;52.286;9.576;2024-03-06T01:59:38;19.17;;;10.02;;
44169;SDS011;29836;52.286;9.576;2024-03-06T02:02:04;22.42;;;11.07;;
44169;SDS011;29836;52.286;9.576;2024-03-06T02:04:32;24.25;;;10.68;;
44169;SDS011;29836;52.286;9.576;2024-03-06T02:06:58;20.75;;;10.30;;
44169;SDS011;29836;52.286;9.576;2024-03-06T02:09:24;20.98;;;10.63;;
44169;SDS011;29836;52.286;9.576;2024-03-06T02:11:49;23.00;;;11.05;;
44169;SDS011;29836;52.286;9.576;2024-03-06T02:14:18;20.88;;;11.25;;
44169;SDS011;29836;52.286;9.576;2024-03-06T02:16:44;21.85;;;11.77;;
44169;SDS011;29836;52.286;9.576;2024-03-06T02:19:09;22.83;;;11.57;;
44169;SDS011;29836;52.286;9.576;2024-03-06T02:21:35;24.35;;;11.10;;
44169;SDS011;29836;52.286;9.576;2024-03-06T02:24:01;20.80;;;10.60;;
44169;SDS011;29836;52.286;9.576;2024-03-06T02:26:26;20.75;;;10.60;;
44169;SDS011;29836;52.286;9.576;2024-03-06T02:28:53;20.02;;;10.73;;
44169;SDS011;29836;52.286;9.576;2024-03-06T02:31:20;22.35;;;10.85;;
44169;SDS011;29836;52.286;9.576;2024-03-06T02:33:46;23.05;;;11.15;;
44169;SDS011;29836;52.286;9.576;2024-03-06T02:36:13;21.13;;;11.10;;
44169;SDS011;29836;52.286;9.576;2024-03-06T02:38:39;21.60;;;10.80;;
44169;SDS011;29836;52.286;9.576;2024-03-06T02:41:05;25.75;;;10.88;;
44169;SDS011;29836;52.286;9.576;2024-03-06T02:43:32;21.63;;;11.30;;
44169;SDS011;29836;52.286;9.576;2024-03-06T02:45:58;20.58;;;10.93;;
44169;SDS011;29836;52.286;9.576;2024-03-06T02:48:24;26.88;;;11.50;;
44169;SDS011;29836;52.286;9.576;2024-03-06T02:50:49;25.75;;;11.77;;
44169;SDS011;29836;52.286;9.576;2024-03-06T02:53:15;20.00;;;10.82;;
44169;SDS011;29836;52.286;9.576;2024-03-06T02:55:40;22.55;;;11.48;;
44169;SDS011;29836;52.286;9.576;2024-03-06T02:58:06;24.88;;;11.50;;
44169;SDS011;29836;52.286;9.576;2024-03-06T03:00:32;25.98;;;12.40;;
44169;SDS011;29836;52.286;9.576;2024-03-06T03:02:57;19.92;;;10.68;;
44169;SDS011;29836;52.286;9.576;2024-03-06T03:05:23;27.77;;;10.88;;
44169;SDS011;29836;52.286;9.576;2024-03-06T03:07:49;20.42;;;11.68;;
44169;SDS011;29836;52.286;9.576;2024-03-06T03:10:14;32.63;;;11.25;;
44169;SDS011;29836;52.286;9.576;2024-03-06T03:12:40;22.27;;;11.35;;
44169;SDS011;29836;52.286;9.576;2024-03-06T03:15:06;22.15;;;10.95;;
44169;SDS011;29836;52.286;9.576;2024-03-06T03:17:32;24.08;;;11.98;;
44169;SDS011;29836;52.286;9.576;2024-03-06T03:19:58;23.38;;;12.68;;
44169;SDS011;29836;52.286;9.576;2024-03-06T03:22:35;22.17;;;11.23;;
44169;SDS011;29836;52.286;9.576;2024-03-06T03:25:01;25.55;;;12.13;;
44169;SDS011;29836;52.286;9.576;2024-03-06T03:27:27;19.60;;;10.35;;
44169;SDS011;29836;52.286;9.576;2024-03-06T03:29:52;21.42;;;10.85;;
44169;SDS011;29836;52.286;9.576;2024-03-06T03:32:18;22.15;;;11.20;;
44169;SDS011;29836;52.286;9.576;2024-03-06T03:34:43;27.10;;;11.95;;
44169;SDS011;29836;52.286;9.576;2024-03-06T03:37:09;27.02;;;12.00;;
44169;SDS011;29836;52.286;9.576;2024-03-06T03:39:34;24.52;;;11.25;;
44169;SDS011;29836;52.286;9.576;2024-03-06T03:42:00;22.40;;;11.85;;
44169;SDS011;29836;52.286;9.576;2024-03-06T03:44:25;20.10;;;10.95;;
44169;SDS011;29836;52.286;9.576;2024-03-06T03:46:51;21.98;;;10.98;;
44169;SDS011;29836;52.286;9.576;2024-03-06T03:49:17;23.27;;;11.93;;
44169;SDS011;29836;52.286;9.576;2024-03-06T03:51:42;18.83;;;10.68;;
44169;SDS011;29836;52.286;9.576;2024-03-06T03:54:08;21.98;;;11.05;;
44169;SDS011;29836;52.286;9.576;2024-03-06T03:56:34;19.83;;;10.50;;
44169;SDS011;29836;52.286;9.576;2024-03-06T03:59:00;22.60;;;11.45;;
44169;SDS011;29836;52.286;9.576;2024-03-06T04:01:26;21.25;;;11.82;;
44169;SDS011;29836;52.286;9.576;2024-03-06T04:03:51;23.05;;;10.63;;
44169;SDS011;29836;52.286;9.576;2024-03-06T04:06:17;22.65;;;11.50;;
44169;SDS011;29836;52.286;9.576;2024-03-06T04:08:43;21.00;;;10.85;;
44169;SDS011;29836;52.286;9.576;2024-03-06T04:11:09;22.42;;;11.07;;
44169;SDS011;29836;52.286;9.576;2024-03-06T04:13:36;20.13;;;10.02;;
44169;SDS011;29836;52.286;9.576;2024-03-06T04:16:02;21.98;;;11.18;;
44169;SDS011;29836;52.286;9.576;2024-03-06T04:18:28;18.35;;;10.98;;
44169;SDS011;29836;52.286;9.576;2024-03-06T04:20:58;22.85;;;12.00;;
44169;SDS011;29836;52.286;9.576;2024-03-06T04:23:24;22.88;;;11.23;;
44169;SDS011;29836;52.286;9.576;2024-03-06T04:25:52;22.67;;;11.20;;
44169;SDS011;29836;52.286;9.576;2024-03-06T04:28:18;24.58;;;11.10;;
44169;SDS011;29836;52.286;9.576;2024-03-06T04:30:43;22.70;;;11.13;;
44169;SDS011;29836;52.286;9.576;2024-03-06T04:33:09;21.85;;;10.75;;
44169;SDS011;29836;52.286;9.576;2024-03-06T04:35:38;21.30;;;10.73;;
44169;SDS011;29836;52.286;9.576;2024-03-06T04:38:04;23.77;;;11.48;;
44169;SDS011;29836;52.286;9.576;2024-03-06T04:40:30;22.10;;;10.07;;
44169;SDS011;29836;52.286;9.576;2024-03-06T04:42:56;23.45;;;11.80;;
44169;SDS011;29836;52.286;9.576;2024-03-06T04:45:22;20.63;;;10.27;;
44169;SDS011;29836;52.286;9.576;2024-03-06T04:47:47;23.88;;;11.48;;
44169;SDS011;29836;52.286;9.576;2024-03-06T04:50:13;28.50;;;11.75;;
44169;SDS011;29836;52.286;9.576;2024-03-06T04:52:42;16.75;;;10.13;;
44169;SDS011;29836;52.286;9.576;2024-03-06T04:55:09;25.73;;;11.52;;
44169;SDS011;29836;52.286;9.576;2024-03-06T04:57:36;20.95;;;10.65;;
44169;SDS011;29836;52.286;9.576;2024-03-06T05:00:07;29.55;;;11.15;;
44169;SDS011;29836;52.286;9.576;2024-03-06T05:02:34;23.83;;;10.82;;
44169;SDS011;29836;52.286;9.576;2024-03-06T05:05:01;25.55;;;11.63;;
44169;SDS011;29836;52.286;9.576;2024-03-06T05:07:28;23.40;;;11.13;;
44169;SDS011;29836;52.286;9.576;2024-03-06T05:09:54;25.60;;;10.88;;
44169;SDS011;29836;52.286;9.576;2024-03-06T05:12:20;18.80;;;10.07;;
44169;SDS011;29836;52.286;9.576;2024-03-06T05:14:45;25.40;;;11.30;;
44169;SDS011;29836;52.286;9.576;2024-03-06T05:17:11;22.45;;;11.40;;
44169;SDS011;29836;52.286;9.576;2024-03-06T05:19:36;24.33;;;11.95;;
44169;SDS011;29836;52.286;9.576;2024-03-06T05:22:02;27.58;;;11.90;;
44169;SDS011;29836;52.286;9.576;2024-03-06T05:24:29;23.05;;;12.00;;
44169;SDS011;29836;52.286;9.576;2024-03-06T05:26:55;22.65;;;11.40;;
44169;SDS011;29836;52.286;9.576;2024-03-06T05:29:20;25.52;;;11.75;;
44169;SDS011;29836;52.286;9.576;2024-03-06T05:31:46;23.83;;;11.93;;
44169;SDS011;29836;52.286;9.576;2024-03-06T05:34:11;24.23;;;12.15;;
44169;SDS011;29836;52.286;9.576;2024-03-06T05:36:37;24.02;;;10.43;;
44169;SDS011;29836;52.286;9.576;2024-03-06T05:39:02;23.40;;;11.70;;
44169;SDS011;29836;52.286;9.576;2024-03-06T05:41:32;23.63;;;11.93;;
44169;SDS011;29836;52.286;9.576;2024-03-06T05:43:57;23.30;;;11.57;;
44169;SDS011;29836;52.286;9.576;2024-03-06T05:46:23;21.00;;;11.52;;
44169;SDS011;29836;52.286;9.576;2024-03-06T05:48:49;26.33;;;11.40;;
44169;SDS011;29836;52.286;9.576;2024-03-06T05:51:16;23.33;;;12.30;;
44169;SDS011;29836;52.286;9.576;2024-03-06T05:53:41;23.40;;;11.57;;
44169;SDS011;29836;52.286;9.576;2024-03-06T05:56:08;28.17;;;11.98;;
44169;SDS011;29836;52.286;9.576;2024-03-06T05:58:34;26.45;;;11.85;;
44169;SDS011;29836;52.286;9.576;2024-03-06T06:01:00;24.45;;;12.45;;
44169;SDS011;29836;52.286;9.576;2024-03-06T06:03:31;21.50;;;10.85;;
44169;SDS011;29836;52.286;9.576;2024-03-06T06:05:57;31.05;;;13.07;;
44169;SDS011;29836;52.286;9.576;2024-03-06T06:08:23;24.92;;;11.02;;
44169;SDS011;29836;52.286;9.576;2024-03-06T06:10:49;24.23;;;11.80;;
44169;SDS011;29836;52.286;9.576;2024-03-06T06:13:16;21.67;;;11.32;;
44169;SDS011;29836;52.286;9.576;2024-03-06T06:15:42;19.25;;;10.75;;
44169;SDS011;29836;52.286;9.576;2024-03-06T06:18:08;22.40;;;11.23;;
44169;SDS011;29836;52.286;9.576;2024-03-06T06:20:33;23.13;;;11.30;;
44169;SDS011;29836;52.286;9.576;2024-03-06T06:22:59;26.20;;;12.32;;
44169;SDS011;29836;52.286;9.576;2024-03-06T06:25:25;26.25;;;11.88;;
44169;SDS011;29836;52.286;9.576;2024-03-06T06:27:50;22.83;;;11.98;;
44169;SDS011;29836;52.286;9.576;2024-03-06T06:30:16;23.10;;;11.68;;
44169;SDS011;29836;52.286;9.576;2024-03-06T06:32:42;22.13;;;11.63;;
44169;SDS011;29836;52.286;9.576;2024-03-06T06:35:08;25.20;;;12.10;;
44169;SDS011;29836;52.286;9.576;2024-03-06T06:37:38;23.85;;;12.55;;
44169;SDS011;29836;52.286;9.576;2024-03-06T06:40:05;25.48;;;12.43;;
44169;SDS011;29836;52.286;9.576;2024-03-06T06:42:32;24.80;;;11.50;;
44169;SDS011;29836;52.286;9.576;2024-03-06T06:44:59;24.75;;;11.85;;
44169;SDS011;29836;52.286;9.576;2024-03-06T06:47:25;27.08;;;12.07;;
44169;SDS011;29836;52.286;9.576;2024-03-06T06:49:51;22.58;;;10.88;;
44169;SDS011;29836;52.286;9.576;2024-03-06T06:52:17;27.13;;;11.65;;
44169;SDS011;29836;52.286;9.576;2024-03-06T06:54:42;22.83;;;11.85;;
44169;SDS011;29836;52.286;9.576;2024-03-06T06:57:08;21.80;;;11.10;;
44169;SDS011;29836;52.286;9.576;2024-03-06T06:59:34;22.75;;;11.02;;
44169;SDS011;29836;52.286;9.576;2024-03-06T07:01:59;23.85;;;10.70;;
44169;SDS011;29836;52.286;9.576;2024-03-06T07:04:25;22.40;;;11.32;;
44169;SDS011;29836;52.286;9.576;2024-03-06T07:06:51;26.67;;;13.10;;
44169;SDS011;29836;52.286;9.576;2024-03-06T07:09:16;26.13;;;12.82;;
44169;SDS011;29836;52.286;9.576;2024-03-06T07:11:43;24.13;;;11.38;;
44169;SDS011;29836;52.286;9.576;2024-03-06T07:14:09;22.13;;;12.30;;
44169;SDS011;29836;52.286;9.576;2024-03-06T07:16:41;23.02;;;11.90;;
44169;SDS011;29836;52.286;9.576;2024-03-06T07:19:07;19.58;;;11.15;;
44169;SDS011;29836;52.286;9.576;2024-03-06T07:21:33;24.27;;;11.45;;
44169;SDS011;29836;52.286;9.576;2024-03-06T07:23:58;23.13;;;11.25;;
44169;SDS011;29836;52.286;9.576;2024-03-06T07:26:25;22.50;;;11.75;;
44169;SDS011;29836;52.286;9.576;2024-03-06T07:28:51;23.00;;;11.68;;
44169;SDS011;29836;52.286;9.576;2024-03-06T07:31:17;22.80;;;11.75;;
44169;SDS011;29836;52.286;9.576;2024-03-06T07:33:43;22.08;;;11.98;;
44169;SDS011;29836;52.286;9.576;2024-03-06T07:36:09;22.33;;;11.52;;
44169;SDS011;29836;52.286;9.576;2024-03-06T07:38:34;24.35;;;11.05;;
44169;SDS011;29836;52.286;9.576;2024-03-06T07:41:00;25.60;;;11.07;;
44169;SDS011;29836;52.286;9.576;2024-03-06T07:43:25;22.45;;;10.98;;
44169;SDS011;29836;52.286;9.576;2024-03-06T07:45:51;27.08;;;12.63;;
44169;SDS011;29836;52.286;9.576;2024-03-06T07:48:17;26.55;;;12.70;;
44169;SDS011;29836;52.286;9.576;2024-03-06T07:50:43;23.52;;;11.88;;
44169;SDS011;29836;52.286;9.576;2024-03-06T07:53:09;24.85;;;12.75;;
44169;SDS011;29836;52.286;9.576;2024-03-06T07:55:34;22.17;;;11.40;;
44169;SDS011;29836;52.286;9.576;2024-03-06T07:58:00;25.17;;;12.23;;
44169;SDS011;29836;52.286;9.576;2024-03-06T08:00:25;26.42;;;12.15;;
44169;SDS011;29836;52.286;9.576;2024-03-06T08:02:52;24.55;;;12.15;;
44169;SDS011;29836;52.286;9.576;2024-03-06T08:05:17;20.10;;;10.88;;
44169;SDS011;29836;52.286;9.576;2024-03-06T08:07:43;20.85;;;11.75;;
44169;SDS011;29836;52.286;9.576;2024-03-06T08:10:11;23.25;;;11.25;;
44169;SDS011;29836;52.286;9.576;2024-03-06T08:12:42;24.52;;;12.88;;
44169;SDS011;29836;52.286;9.576;2024-03-06T08:15:10;26.90;;;12.98;;
44169;SDS011;29836;52.286;9.576;2024-03-06T08:17:36;20.15;;;11.80;;
44169;SDS011;29836;52.286;9.576;2024-03-06T08:20:07;23.75;;;12.45;;
44169;SDS011;29836;52.286;9.576;2024-03-06T08:22:37;29.23;;;11.88;;
44169;SDS011;29836;52.286;9.576;2024-03-06T08:25:13;24.25;;;12.48;;
44169;SDS011;29836;52.286;9.576;2024-03-06T08:27:39;21.75;;;11.20;;
44169;SDS011;29836;52.286;9.576;2024-03-06T08:30:05;22.52;;;11.27;;
44169;SDS011;29836;52.286;9.576;2024-03-06T08:32:32;23.38;;;11.43;;
44169;SDS011;29836;52.286;9.576;2024-03-06T08:35:00;23.38;;;12.07;;
44169;SDS011;29836;52.286;9.576;2024-03-06T08:37:36;21.85;;;11.32;;
44169;SDS011;29836;52.286;9.576;2024-03-06T08:40:01;26.20;;;12.00;;
44169;SDS011;29836;52.286;9.576;2024-03-06T08:42:27;24.60;;;11.15;;
44169;SDS011;29836;52.286;9.576;2024-03-06T08:44:53;24.38;;;11.25;;
44169;SDS011;29836;52.286;9.576;2024-03-06T08:47:19;23.00;;;11.55;;
44169;SDS011;29836;52.286;9.576;2024-03-06T08:49:44;22.30;;;11.55;;
44169;SDS011;29836;52.286;9.576;2024-03-06T08:52:10;25.63;;;12.15;;
44169;SDS011;29836;52.286;9.576;2024-03-06T08:54:36;24.17;;;12.23;;
44169;SDS011;29836;52.286;9.576;2024-03-06T08:57:02;24.60;;;12.13;;
44169;SDS011;29836;52.286;9.576;2024-03-06T08:59:29;22.30;;;11.60;;
44169;SDS011;29836;52.286;9.576;2024-03-06T09:01:55;24.27;;;12.20;;
44169;SDS011;29836;52.286;9.576;2024-03-06T09:04:21;22.27;;;12.00;;
44169;SDS011;29836;52.286;9.576;2024-03-06T09:06:47;24.40;;;12.63;;
44169;SDS011;29836;52.286;9.576;2024-03-06T09:09:13;25.08;;;12.02;;
44169;SDS011;29836;52.286;9.576;2024-03-06T09:11:40;22.58;;;11.80;;
44169;SDS011;29836;52.286;9.576;2024-03-06T09:14:06;22.38;;;11.95;;
44169;SDS011;29836;52.286;9.576;2024-03-06T09:16:34;24.20;;;13.15;;
44169;SDS011;29836;52.286;9.576;2024-03-06T09:18:59;23.10;;;12.25;;
44169;SDS011;29836;52.286;9.576;2024-03-06T09:21:25;22.42;;;12.23;;
44169;SDS011;29836;52.286;9.576;2024-03-06T09:23:50;25.02;;;12.25;;
44169;SDS011;29836;52.286;9.576;2024-03-06T09:26:16;23.75;;;12.57;;
44169;SDS011;29836;52.286;9.576;2024-03-06T09:28:42;27.42;;;12.57;;
44169;SDS011;29836;52.286;9.576;2024-03-06T09:31:08;23.05;;;11.98;;
44169;SDS011;29836;52.286;9.576;2024-03-06T09:33:33;26.08;;;12.75;;
44169;SDS011;29836;52.286;9.576;2024-03-06T09:35:59;25.02;;;12.90;;
44169;SDS011;29836;52.286;9.576;2024-03-06T09:38:25;28.52;;;12.88;;
44169;SDS011;29836;52.286;9.576;2024-03-06T09:40:50;24.98;;;11.95;;
44169;SDS011;29836;52.286;9.576;2024-03-06T09:43:17;30.45;;;11.23;;
44169;SDS011;29836;52.286;9.576;2024-03-06T09:45:44;22.23;;;11.45;;
44169;SDS011;29836;52.286;9.576;2024-03-06T09:48:13;23.70;;;12.65;;
44169;SDS011;29836;52.286;9.576;2024-03-06T09:50:38;22.10;;;11.70;;
44169;SDS011;29836;52.286;9.576;2024-03-06T09:53:10;28.70;;;12.98;;
44169;SDS011;29836;52.286;9.576;2024-03-06T09:55:39;24.50;;;12.98;;
44169;SDS011;29836;52.286;9.576;2024-03-06T09:58:06;23.83;;;11.88;;
44169;SDS011;29836;52.286;9.576;2024-03-06T10:00:33;22.02;;;11.93;;
44169;SDS011;29836;52.286;9.576;2024-03-06T10:03:01;24.25;;;12.13;;
44169;SDS011;29836;52.286;9.576;2024-03-06T10:05:30;21.52;;;11.98;;
44169;SDS011;29836;52.286;9.576;2024-03-06T10:07:58;27.42;;;12.52;;
44169;SDS011;29836;52.286;9.576;2024-03-06T10:10:25;23.05;;;13.02;;
44169;SDS011;29836;52.286;9.576;2024-03-06T10:12:51;24.55;;;11.68;;
44169;SDS011;29836;52.286;9.576;2024-03-06T10:15:17;26.83;;;12.45;;
44169;SDS011;29836;52.286;9.576;2024-03-06T10:17:43;26.80;;;12.32;;
44169;SDS011;29836;52.286;9.576;2024-03-06T10:20:23;24.55;;;11.98;;
44169;SDS011;29836;52.286;9.576;2024-03-06T10:22:52;24.73;;;13.00;;
44169;SDS011;29836;52.286;9.576;2024-03-06T10:25:19;22.02;;;11.02;;
44169;SDS011;29836;52.286;9.576;2024-03-06T10:27:45;22.17;;;11.45;;
44169;SDS011;29836;52.286;9.576;2024-03-06T10:30:11;21.55;;;11.95;;
44169;SDS011;29836;52.286;9.576;2024-03-06T10:32:40;26.92;;;11.70;;
44169;SDS011;29836;52.286;9.576;2024-03-06T10:35:17;26.20;;;11.57;;
44169;SDS011;29836;52.286;9.576;2024-03-06T10:37:43;20.88;;;12.13;;
44169;SDS011;29836;52.286;9.576;2024-03-06T10:40:10;25.45;;;12.05;;
44169;SDS011;29836;52.286;9.576;2024-03-06T10:42:40;25.80;;;12.60;;
44169;SDS011;29836;52.286;9.576;2024-03-06T10:45:07;26.02;;;13.25;;
44169;SDS011;29836;52.286;9.576;2024-03-06T10:47:35;22.35;;;11.57;;
44169;SDS011;29836;52.286;9.576;2024-03-06T10:50:02;24.50;;;12.82;;
44169;SDS011;29836;52.286;9.576;2024-03-06T10:52:30;23.90;;;12.60;;
44169;SDS011;29836;52.286;9.576;2024-03-06T10:54:58;21.50;;;11.70;;
44169;SDS011;29836;52.286;9.576;2024-03-06T10:57:25;23.77;;;12.57;;
44169;SDS011;29836;52.286;9.576;2024-03-06T10:59:52;22.55;;;11.77;;
44169;SDS011;29836;52.286;9.576;2024-03-06T11:02:17;23.73;;;12.00;;
44169;SDS011;29836;52.286;9.576;2024-03-06T11:04:44;21.80;;;11.93;;
44169;SDS011;29836;52.286;9.576;2024-03-06T11:07:09;22.75;;;12.30;;
44169;SDS011;29836;52.286;9.576;2024-03-06T11:09:36;23.75;;;12.52;;
44169;SDS011;29836;52.286;9.576;2024-03-06T11:12:05;25.05;;;12.52;;
44169;SDS011;29836;52.286;9.576;2024-03-06T11:14:38;21.10;;;12.60;;
44169;SDS011;29836;52.286;9.576;2024-03-06T11:19:32;30.27;;;13.43;;
44169;SDS011;29836;52.286;9.576;2024-03-06T11:28:11;24.05;;;13.05;;
44169;SDS011;29836;52.286;9.576;2024-03-06T11:41:22;24.58;;;12.38;;
44169;SDS011;29836;52.286;9.576;2024-03-06T11:43:49;22.65;;;11.90;;
44169;SDS011;29836;52.286;9.576;2024-03-06T11:46:17;22.38;;;12.23;;
44169;SDS011;29836;52.286;9.576;2024-03-06T11:48:56;25.60;;;12.90;;
44169;SDS011;29836;52.286;9.576;2024-03-06T11:51:22;24.97;;;12.90;;
44169;SDS011;29836;52.286;9.576;2024-03-06T11:53:51;26.10;;;12.75;;
44169;SDS011;29836;52.286;9.576;2024-03-06T11:56:18;23.98;;;12.98;;
44169;SDS011;29836;52.286;9.576;2024-03-06T11:58:45;22.67;;;12.95;;
44169;SDS011;29836;52.286;9.576;2024-03-06T12:01:11;22.77;;;12.88;;
44169;SDS011;29836;52.286;9.576;2024-03-06T12:03:37;28.83;;;12.95;;
44169;SDS011;29836;52.286;9.576;2024-03-06T12:06:04;25.65;;;13.18;;
44169;SDS011;29836;52.286;9.576;2024-03-06T12:08:30;24.70;;;13.23;;
44169;SDS011;29836;52.286;9.576;2024-03-06T12:10:55;30.20;;;13.50;;
44169;SDS011;29836;52.286;9.576;2024-03-06T12:13:23;26.15;;;13.70;;
44169;SDS011;29836;52.286;9.576;2024-03-06T12:15:49;20.15;;;11.82;;
44169;SDS011;29836;52.286;9.576;2024-03-06T12:18:16;24.38;;;13.18;;
44169;SDS011;29836;52.286;9.576;2024-03-06T12:20:43;22.05;;;12.20;;
44169;SDS011;29836;52.286;9.576;2024-03-06T12:23:18;22.42;;;12.90;;
44169;SDS011;29836;52.286;9.576;2024-03-06T12:25:46;23.75;;;12.07;;
44169;SDS011;29836;52.286;9.576;2024-03-06T12:28:11;22.83;;;12.88;;
44169;SDS011;29836;52.286;9.576;2024-03-06T12:30:43;22.60;;;11.85;;
44169;SDS011;29836;52.286;9.576;2024-03-06T12:33:09;23.33;;;11.65;;
44169;SDS011;29836;52.286;9.576;2024-03-06T12:35:39;26.85;;;11.68;;
44169;SDS011;29836;52.286;9.576;2024-03-06T12:38:12;20.67;;;10.90;;
44169;SDS011;29836;52.286;9.576;2024-03-06T12:40:38;24.45;;;11.05;;
44169;SDS011;29836;52.286;9.576;2024-03-06T12:43:05;21.63;;;12.05;;
44169;SDS011;29836;52.286;9.576;2024-03-06T12:45:30;22.30;;;11.43;;
44169;SDS011;29836;52.286;9.576;2024-03-06T12:47:56;20.48;;;10.57;;
44169;SDS011;29836;52.286;9.576;2024-03-06T12:50:22;21.02;;;11.63;;
44169;SDS011;29836;52.286;9.576;2024-03-06T12:52:48;20.23;;;10.88;;
44169;SDS011;29836;52.286;9.576;2024-03-06T12:55:14;20.50;;;10.77;;
44169;SDS011;29836;52.286;9.576;2024-03-06T12:57:39;21.23;;;11.30;;
44169;SDS011;29836;52.286;9.576;2024-03-06T13:00:05;21.67;;;10.70;;
44169;SDS011;29836;52.286;9.576;2024-03-06T13:02:40;23.52;;;11.07;;
44169;SDS011;29836;52.286;9.576;2024-03-06T13:05:09;23.95;;;10.77;;
44169;SDS011;29836;52.286;9.576;2024-03-06T13:07:35;25.27;;;11.75;;
44169;SDS011;29836;52.286;9.576;2024-03-06T13:10:01;25.45;;;11.98;;
44169;SDS011;29836;52.286;9.576;2024-03-06T13:12:30;23.27;;;11.98;;
44169;SDS011;29836;52.286;9.576;2024-03-06T13:14:55;26.00;;;11.43;;
44169;SDS011;29836;52.286;9.576;2024-03-06T13:17:21;21.77;;;12.30;;
44169;SDS011;29836;52.286;9.576;2024-03-06T13:19:47;22.90;;;11.25;;
44169;SDS011;29836;52.286;9.576;2024-03-06T13:22:12;21.75;;;11.38;;
44169;SDS011;29836;52.286;9.576;2024-03-06T13:24:39;20.92;;;12.27;;
44169;SDS011;29836;52.286;9.576;2024-03-06T13:27:04;20.13;;;11.60;;
44169;SDS011;29836;52.286;9.576;2024-03-06T13:29:30;26.40;;;11.55;;
44169;SDS011;29836;52.286;9.576;2024-03-06T13:31:55;20.58;;;11.15;;
44169;SDS011;29836;52.286;9.576;2024-03-06T13:34:21;19.90;;;10.95;;
44169;SDS011;29836;52.286;9.576;2024-03-06T13:36:47;19.30;;;11.43;;
44169;SDS011;29836;52.286;9.576;2024-03-06T13:39:12;19.73;;;10.90;;
44169;SDS011;29836;52.286;9.576;2024-03-06T13:41:38;20.77;;;11.35;;
44169;SDS011;29836;52.286;9.576;2024-03-06T13:44:03;20.90;;;12.15;;
44169;SDS011;29836;52.286;9.576;2024-03-06T13:46:29;22.17;;;11.93;;
44169;SDS011;29836;52.286;9.576;2024-03-06T13:48:54;23.17;;;11.40;;
44169;SDS011;29836;52.286;9.576;2024-03-06T13:51:20;25.27;;;11.80;;
44169;SDS011;29836;52.286;9.576;2024-03-06T13:53:45;21.65;;;10.93;;
44169;SDS011;29836;52.286;9.576;2024-03-06T13:56:11;24.60;;;12.18;;
44169;SDS011;29836;52.286;9.576;2024-03-06T13:58:37;24.80;;;11.60;;
44169;SDS011;29836;52.286;9.576;2024-03-06T14:01:03;25.08;;;11.35;;
44169;SDS011;29836;52.286;9.576;2024-03-06T14:03:30;23.98;;;12.50;;
44169;SDS011;29836;52.286;9.576;2024-03-06T14:05:58;20.73;;;11.35;;
44169;SDS011;29836;52.286;9.576;2024-03-06T14:08:24;23.10;;;11.45;;
44169;SDS011;29836;52.286;9.576;2024-03-06T14:10:50;22.10;;;11.70;;
44169;SDS011;29836;52.286;9.576;2024-03-06T14:13:16;22.15;;;11.48;;
44169;SDS011;29836;52.286;9.576;2024-03-06T14:15:41;23.40;;;12.23;;
44169;SDS011;29836;52.286;9.576;2024-03-06T14:18:07;23.80;;;12.23;;
44169;SDS011;29836;52.286;9.576;2024-03-06T14:20:32;23.10;;;11.38;;
44169;SDS011;29836;52.286;9.576;2024-03-06T14:22:58;25.17;;;11.50;;
44169;SDS011;29836;52.286;9.576;2024-03-06T14:25:23;21.85;;;12.05;;
44169;SDS011;29836;52.286;9.576;2024-03-06T14:27:49;21.20;;;12.25;;
44169;SDS011;29836;52.286;9.576;2024-03-06T14:30:15;25.67;;;12.15;;
44169;SDS011;29836;52.286;9.576;2024-03-06T14:32:40;25.05;;;12.93;;
44169;SDS011;29836;52.286;9.576;2024-03-06T14:35:06;23.88;;;11.98;;
44169;SDS011;29836;52.286;9.576;2024-03-06T14:37:33;20.80;;;11.10;;